sensor_id;sensor_type;location;lat;lon;timestamp;P1;durP1;ratioP1;P2;durP2;ratioP2
51082;SDS011;37131;42.694;23.350;2023-09-18T00:00:20;11.25;;;6.60;;
51082;SDS011;37131;42.694;23.350;2023-09-18T00:02:46;12.48;;;6.88;;
51082;SDS011;37131;42.694;23.350;2023-09-18T00:05:12;11.98;;;7.00;;
51082;SDS011;37131;42.694;23.350;2023-09-18T00:07:40;14.32;;;7.20;;
51082;SDS011;37131;42.694;23.350;2023-09-18T00:10:12;13.65;;;7.40;;
51082;SDS011;37131;42.694;23.350;2023-09-18T00:12:37;13.00;;;6.60;;
51082;SDS011;37131;42.694;23.350;2023-09-18T00:15:04;13.13;;;6.82;;
51082;SDS011;37131;42.694;23.350;2023-09-18T00:17:30;13.85;;;6.88;;
51082;SDS011;37131;42.694;23.350;2023-09-18T00:19:56;10.95;;;6.07;;
51082;SDS011;37131;42.694;23.350;2023-09-18T00:22:21;9.98;;;6.38;;
51082;SDS011;37131;42.694;23.350;2023-09-18T00:24:47;10.60;;;5.90;;
51082;SDS011;37131;42.694;23.350;2023-09-18T00:27:12;16.38;;;6.93;;
51082;SDS011;37131;42.694;23.350;2023-09-18T00:29:38;10.43;;;6.78;;
51082;SDS011;37131;42.694;23.350;2023-09-18T00:32:04;15.27;;;6.38;;
51082;SDS011;37131;42.694;23.350;2023-09-18T00:34:31;14.45;;;7.13;;
51082;SDS011;37131;42.694;23.350;2023-09-18T00:36:57;12.40;;;6.63;;
51082;SDS011;37131;42.694;23.350;2023-09-18T00:39:24;12.07;;;6.95;;
51082;SDS011;37131;42.694;23.350;2023-09-18T00:41:49;12.07;;;6.47;;
51082;SDS011;37131;42.694;23.350;2023-09-18T00:44:18;13.10;;;7.45;;
51082;SDS011;37131;42.694;23.350;2023-09-18T00:46:44;13.55;;;7.13;;
51082;SDS011;37131;42.694;23.350;2023-09-18T00:49:10;12.25;;;7.10;;
51082;SDS011;37131;42.694;23.350;2023-09-18T00:51:37;9.80;;;5.65;;
51082;SDS011;37131;42.694;23.350;2023-09-18T00:54:03;10.07;;;6.00;;
51082;SDS011;37131;42.694;23.350;2023-09-18T00:56:29;11.23;;;6.20;;
51082;SDS011;37131;42.694;23.350;2023-09-18T00:58:54;9.25;;;5.43;;
51082;SDS011;37131;42.694;23.350;2023-09-18T01:01:20;8.77;;;5.05;;
51082;SDS011;37131;42.694;23.350;2023-09-18T01:03:49;8.95;;;5.30;;
51082;SDS011;37131;42.694;23.350;2023-09-18T01:06:16;11.27;;;4.90;;
51082;SDS011;37131;42.694;23.350;2023-09-18T01:08:43;10.57;;;5.30;;
51082;SDS011;37131;42.694;23.350;2023-09-18T01:11:19;10.95;;;5.40;;
51082;SDS011;37131;42.694;23.350;2023-09-18T01:13:50;10.15;;;5.28;;
51082;SDS011;37131;42.694;23.350;2023-09-18T01:16:27;11.50;;;4.88;;
51082;SDS011;37131;42.694;23.350;2023-09-18T01:18:59;12.05;;;4.97;;
51082;SDS011;37131;42.694;23.350;2023-09-18T01:21:27;8.98;;;4.45;;
51082;SDS011;37131;42.694;23.350;2023-09-18T01:23:53;10.00;;;4.85;;
51082;SDS011;37131;42.694;23.350;2023-09-18T01:26:18;8.18;;;4.65;;
51082;SDS011;37131;42.694;23.350;2023-09-18T01:28:44;9.32;;;4.40;;
51082;SDS011;37131;42.694;23.350;2023-09-18T01:31:09;6.13;;;4.07;;
51082;SDS011;37131;42.694;23.350;2023-09-18T01:33:34;7.82;;;4.78;;
51082;SDS011;37131;42.694;23.350;2023-09-18T01:36:02;8.70;;;4.57;;
51082;SDS011;37131;42.694;23.350;2023-09-18T01:38:28;6.95;;;3.90;;
51082;SDS011;37131;42.694;23.350;2023-09-18T01:40:55;7.20;;;4.25;;
51082;SDS011;37131;42.694;23.350;2023-09-18T01:43:20;7.82;;;4.57;;
51082;SDS011;37131;42.694;23.350;2023-09-18T01:45:46;7.78;;;4.13;;
51082;SDS011;37131;42.694;23.350;2023-09-18T01:48:12;7.22;;;4.32;;
51082;SDS011;37131;42.694;23.350;2023-09-18T01:50:38;9.40;;;4.40;;
51082;SDS011;37131;42.694;23.350;2023-09-18T01:53:07;8.52;;;4.68;;
51082;SDS011;37131;42.694;23.350;2023-09-18T01:55:32;8.80;;;4.72;;
51082;SDS011;37131;42.694;23.350;2023-09-18T01:57:58;6.75;;;4.15;;
51082;SDS011;37131;42.694;23.350;2023-09-18T02:00:24;8.80;;;4.95;;
51082;SDS011;37131;42.694;23.350;2023-09-18T02:02:49;9.77;;;4.80;;
51082;SDS011;37131;42.694;23.350;2023-09-18T02:05:15;7.60;;;4.25;;
51082;SDS011;37131;42.694;23.350;2023-09-18T02:07:40;11.00;;;5.40;;
51082;SDS011;37131;42.694;23.350;2023-09-18T02:10:06;11.50;;;5.22;;
51082;SDS011;37131;42.694;23.350;2023-09-18T02:12:32;8.93;;;4.57;;
51082;SDS011;37131;42.694;23.350;2023-09-18T02:14:57;9.10;;;5.32;;
51082;SDS011;37131;42.694;23.350;2023-09-18T02:17:23;9.77;;;5.38;;
51082;SDS011;37131;42.694;23.350;2023-09-18T02:19:49;8.35;;;4.90;;
51082;SDS011;37131;42.694;23.350;2023-09-18T02:22:15;11.45;;;5.57;;
51082;SDS011;37131;42.694;23.350;2023-09-18T02:24:40;8.10;;;5.20;;
51082;SDS011;37131;42.694;23.350;2023-09-18T02:27:05;9.48;;;5.55;;
51082;SDS011;37131;42.694;23.350;2023-09-18T02:29:31;8.75;;;4.80;;
51082;SDS011;37131;42.694;23.350;2023-09-18T02:31:56;7.68;;;4.35;;
51082;SDS011;37131;42.694;23.350;2023-09-18T02:34:22;8.68;;;4.72;;
51082;SDS011;37131;42.694;23.350;2023-09-18T02:36:47;7.38;;;4.25;;
51082;SDS011;37131;42.694;23.350;2023-09-18T02:39:12;7.25;;;4.47;;
51082;SDS011;37131;42.694;23.350;2023-09-18T02:41:38;8.40;;;4.43;;
51082;SDS011;37131;42.694;23.350;2023-09-18T02:44:03;6.88;;;4.07;;
51082;SDS011;37131;42.694;23.350;2023-09-18T02:46:29;6.60;;;3.83;;
51082;SDS011;37131;42.694;23.350;2023-09-18T02:48:55;7.40;;;3.70;;
51082;SDS011;37131;42.694;23.350;2023-09-18T02:51:20;7.95;;;4.22;;
51082;SDS011;37131;42.694;23.350;2023-09-18T02:53:45;7.10;;;3.58;;
51082;SDS011;37131;42.694;23.350;2023-09-18T02:56:11;7.53;;;3.80;;
51082;SDS011;37131;42.694;23.350;2023-09-18T02:58:37;7.53;;;3.40;;
51082;SDS011;37131;42.694;23.350;2023-09-18T03:01:02;5.47;;;3.28;;
51082;SDS011;37131;42.694;23.350;2023-09-18T03:03:30;6.40;;;3.70;;
51082;SDS011;37131;42.694;23.350;2023-09-18T03:06:05;5.25;;;3.47;;
51082;SDS011;37131;42.694;23.350;2023-09-18T03:08:31;8.43;;;3.90;;
51082;SDS011;37131;42.694;23.350;2023-09-18T03:10:57;6.97;;;3.50;;
51082;SDS011;37131;42.694;23.350;2023-09-18T03:13:23;6.68;;;3.63;;
51082;SDS011;37131;42.694;23.350;2023-09-18T03:15:48;11.45;;;4.38;;
51082;SDS011;37131;42.694;23.350;2023-09-18T03:18:14;8.05;;;4.30;;
51082;SDS011;37131;42.694;23.350;2023-09-18T03:20:39;7.05;;;3.92;;
51082;SDS011;37131;42.694;23.350;2023-09-18T03:23:05;9.40;;;4.53;;
51082;SDS011;37131;42.694;23.350;2023-09-18T03:25:30;6.97;;;3.88;;
51082;SDS011;37131;42.694;23.350;2023-09-18T03:27:56;9.88;;;4.72;;
51082;SDS011;37131;42.694;23.350;2023-09-18T03:30:25;10.02;;;5.43;;
51082;SDS011;37131;42.694;23.350;2023-09-18T03:32:51;10.55;;;5.10;;
51082;SDS011;37131;42.694;23.350;2023-09-18T03:35:18;9.73;;;4.65;;
51082;SDS011;37131;42.694;23.350;2023-09-18T03:37:44;10.57;;;4.80;;
51082;SDS011;37131;42.694;23.350;2023-09-18T03:40:13;8.57;;;4.70;;
51082;SDS011;37131;42.694;23.350;2023-09-18T03:42:41;9.98;;;4.82;;
51082;SDS011;37131;42.694;23.350;2023-09-18T03:45:07;9.98;;;5.30;;
51082;SDS011;37131;42.694;23.350;2023-09-18T03:47:33;13.68;;;5.85;;
51082;SDS011;37131;42.694;23.350;2023-09-18T03:50:00;13.55;;;5.90;;
51082;SDS011;37131;42.694;23.350;2023-09-18T03:52:26;14.02;;;5.82;;
51082;SDS011;37131;42.694;23.350;2023-09-18T03:54:52;13.15;;;6.05;;
51082;SDS011;37131;42.694;23.350;2023-09-18T03:57:18;15.13;;;6.43;;
51082;SDS011;37131;42.694;23.350;2023-09-18T03:59:43;12.73;;;6.10;;
51082;SDS011;37131;42.694;23.350;2023-09-18T04:02:08;11.25;;;5.32;;
51082;SDS011;37131;42.694;23.350;2023-09-18T04:04:34;12.20;;;6.47;;
51082;SDS011;37131;42.694;23.350;2023-09-18T04:06:59;11.45;;;5.82;;
51082;SDS011;37131;42.694;23.350;2023-09-18T04:09:24;10.60;;;5.75;;
51082;SDS011;37131;42.694;23.350;2023-09-18T04:11:50;13.98;;;6.68;;
51082;SDS011;37131;42.694;23.350;2023-09-18T04:14:15;11.90;;;5.60;;
51082;SDS011;37131;42.694;23.350;2023-09-18T04:16:41;10.82;;;5.78;;
51082;SDS011;37131;42.694;23.350;2023-09-18T04:19:08;11.05;;;5.60;;
51082;SDS011;37131;42.694;23.350;2023-09-18T04:21:34;15.52;;;5.95;;
51082;SDS011;37131;42.694;23.350;2023-09-18T04:24:00;11.25;;;5.30;;
51082;SDS011;37131;42.694;23.350;2023-09-18T04:26:26;11.73;;;5.18;;
51082;SDS011;37131;42.694;23.350;2023-09-18T04:28:59;8.82;;;4.50;;
51082;SDS011;37131;42.694;23.350;2023-09-18T04:31:25;9.82;;;5.28;;
51082;SDS011;37131;42.694;23.350;2023-09-18T04:33:52;12.30;;;5.32;;
51082;SDS011;37131;42.694;23.350;2023-09-18T04:36:17;10.65;;;4.65;;
51082;SDS011;37131;42.694;23.350;2023-09-18T04:38:43;10.45;;;4.82;;
51082;SDS011;37131;42.694;23.350;2023-09-18T04:41:08;11.07;;;4.40;;
51082;SDS011;37131;42.694;23.350;2023-09-18T04:43:35;10.98;;;5.32;;
51082;SDS011;37131;42.694;23.350;2023-09-18T04:46:01;8.73;;;3.88;;
51082;SDS011;37131;42.694;23.350;2023-09-18T04:48:29;10.00;;;4.63;;
51082;SDS011;37131;42.694;23.350;2023-09-18T04:50:55;13.35;;;5.95;;
51082;SDS011;37131;42.694;23.350;2023-09-18T04:53:21;12.52;;;5.40;;
51082;SDS011;37131;42.694;23.350;2023-09-18T04:55:46;14.07;;;5.38;;
51082;SDS011;37131;42.694;23.350;2023-09-18T04:58:15;13.82;;;5.40;;
51082;SDS011;37131;42.694;23.350;2023-09-18T05:00:44;10.15;;;5.35;;
51082;SDS011;37131;42.694;23.350;2023-09-18T05:03:10;12.38;;;4.95;;
51082;SDS011;37131;42.694;23.350;2023-09-18T05:05:36;12.45;;;5.70;;
51082;SDS011;37131;42.694;23.350;2023-09-18T05:08:02;11.60;;;5.32;;
51082;SDS011;37131;42.694;23.350;2023-09-18T05:10:28;10.18;;;5.35;;
51082;SDS011;37131;42.694;23.350;2023-09-18T05:12:54;15.65;;;5.60;;
51082;SDS011;37131;42.694;23.350;2023-09-18T05:15:23;12.98;;;5.80;;
51082;SDS011;37131;42.694;23.350;2023-09-18T05:17:54;12.18;;;5.40;;
51082;SDS011;37131;42.694;23.350;2023-09-18T05:20:22;10.88;;;4.60;;
51082;SDS011;37131;42.694;23.350;2023-09-18T05:22:53;10.43;;;4.82;;
51082;SDS011;37131;42.694;23.350;2023-09-18T05:25:19;10.60;;;4.65;;
51082;SDS011;37131;42.694;23.350;2023-09-18T05:27:46;10.77;;;4.70;;
51082;SDS011;37131;42.694;23.350;2023-09-18T05:30:18;170.02;;;61.13;;
51082;SDS011;37131;42.694;23.350;2023-09-18T05:32:46;240.27;;;66.07;;
51082;SDS011;37131;42.694;23.350;2023-09-18T05:35:13;223.18;;;64.53;;
51082;SDS011;37131;42.694;23.350;2023-09-18T05:37:39;13.35;;;5.72;;
51082;SDS011;37131;42.694;23.350;2023-09-18T05:40:05;14.02;;;6.10;;
51082;SDS011;37131;42.694;23.350;2023-09-18T05:42:34;12.07;;;5.60;;
51082;SDS011;37131;42.694;23.350;2023-09-18T05:45:00;11.48;;;5.43;;
51082;SDS011;37131;42.694;23.350;2023-09-18T05:47:26;13.13;;;6.38;;
51082;SDS011;37131;42.694;23.350;2023-09-18T05:49:51;15.65;;;6.78;;
51082;SDS011;37131;42.694;23.350;2023-09-18T05:52:16;12.77;;;5.90;;
51082;SDS011;37131;42.694;23.350;2023-09-18T05:54:42;12.45;;;5.47;;
51082;SDS011;37131;42.694;23.350;2023-09-18T05:57:07;11.05;;;5.30;;
51082;SDS011;37131;42.694;23.350;2023-09-18T05:59:32;9.73;;;5.10;;
51082;SDS011;37131;42.694;23.350;2023-09-18T06:02:00;10.50;;;5.30;;
51082;SDS011;37131;42.694;23.350;2023-09-18T06:04:25;8.90;;;4.93;;
51082;SDS011;37131;42.694;23.350;2023-09-18T06:06:51;9.95;;;4.97;;
51082;SDS011;37131;42.694;23.350;2023-09-18T06:09:16;10.48;;;5.60;;
51082;SDS011;37131;42.694;23.350;2023-09-18T06:11:42;10.45;;;4.82;;
51082;SDS011;37131;42.694;23.350;2023-09-18T06:14:07;18.95;;;10.20;;
51082;SDS011;37131;42.694;23.350;2023-09-18T06:16:32;16.27;;;5.10;;
51082;SDS011;37131;42.694;23.350;2023-09-18T06:18:58;9.52;;;4.60;;
51082;SDS011;37131;42.694;23.350;2023-09-18T06:21:25;52.40;;;19.75;;
51082;SDS011;37131;42.694;23.350;2023-09-18T06:23:51;69.03;;;45.13;;
51082;SDS011;37131;42.694;23.350;2023-09-18T06:26:16;19.38;;;7.35;;
51082;SDS011;37131;42.694;23.350;2023-09-18T06:28:43;11.75;;;6.90;;
51082;SDS011;37131;42.694;23.350;2023-09-18T06:31:09;23.15;;;13.82;;
51082;SDS011;37131;42.694;23.350;2023-09-18T06:33:36;21.77;;;15.23;;
51082;SDS011;37131;42.694;23.350;2023-09-18T06:36:01;41.03;;;34.72;;
51082;SDS011;37131;42.694;23.350;2023-09-18T06:38:28;52.15;;;39.70;;
51082;SDS011;37131;42.694;23.350;2023-09-18T06:40:53;34.40;;;28.45;;
51082;SDS011;37131;42.694;23.350;2023-09-18T06:43:20;22.95;;;14.52;;
51082;SDS011;37131;42.694;23.350;2023-09-18T06:45:45;28.60;;;13.95;;
51082;SDS011;37131;42.694;23.350;2023-09-18T06:48:11;24.95;;;9.27;;
51082;SDS011;37131;42.694;23.350;2023-09-18T06:50:36;17.63;;;6.57;;
51082;SDS011;37131;42.694;23.350;2023-09-18T06:53:03;21.52;;;6.55;;
51082;SDS011;37131;42.694;23.350;2023-09-18T06:55:29;14.40;;;6.28;;
51082;SDS011;37131;42.694;23.350;2023-09-18T06:57:54;20.08;;;7.20;;
51082;SDS011;37131;42.694;23.350;2023-09-18T07:00:19;10.38;;;5.43;;
51082;SDS011;37131;42.694;23.350;2023-09-18T07:02:45;10.98;;;5.63;;
51082;SDS011;37131;42.694;23.350;2023-09-18T07:05:11;24.77;;;9.40;;
51082;SDS011;37131;42.694;23.350;2023-09-18T07:07:37;13.70;;;6.53;;
51082;SDS011;37131;42.694;23.350;2023-09-18T07:10:02;16.88;;;6.55;;
51082;SDS011;37131;42.694;23.350;2023-09-18T07:12:28;18.88;;;6.70;;
51082;SDS011;37131;42.694;23.350;2023-09-18T07:14:53;15.18;;;5.80;;
51082;SDS011;37131;42.694;23.350;2023-09-18T07:17:18;213.30;;;57.63;;
51082;SDS011;37131;42.694;23.350;2023-09-18T07:19:44;260.52;;;68.22;;
51082;SDS011;37131;42.694;23.350;2023-09-18T07:22:09;16.08;;;5.95;;
51082;SDS011;37131;42.694;23.350;2023-09-18T07:24:34;10.10;;;5.30;;
51082;SDS011;37131;42.694;23.350;2023-09-18T07:27:00;9.82;;;5.40;;
51082;SDS011;37131;42.694;23.350;2023-09-18T07:29:25;11.52;;;5.43;;
51082;SDS011;37131;42.694;23.350;2023-09-18T07:31:51;10.60;;;5.32;;
51082;SDS011;37131;42.694;23.350;2023-09-18T07:34:16;11.77;;;5.70;;
51082;SDS011;37131;42.694;23.350;2023-09-18T07:36:42;10.48;;;5.30;;
51082;SDS011;37131;42.694;23.350;2023-09-18T07:39:09;10.52;;;5.50;;
51082;SDS011;37131;42.694;23.350;2023-09-18T07:41:36;9.43;;;5.60;;
51082;SDS011;37131;42.694;23.350;2023-09-18T07:44:02;10.82;;;5.45;;
51082;SDS011;37131;42.694;23.350;2023-09-18T07:46:27;10.30;;;5.18;;
51082;SDS011;37131;42.694;23.350;2023-09-18T07:48:52;11.38;;;6.07;;
51082;SDS011;37131;42.694;23.350;2023-09-18T07:51:18;11.05;;;5.20;;
51082;SDS011;37131;42.694;23.350;2023-09-18T07:53:43;9.52;;;4.93;;
51082;SDS011;37131;42.694;23.350;2023-09-18T07:56:09;9.68;;;4.82;;
51082;SDS011;37131;42.694;23.350;2023-09-18T07:58:35;10.32;;;4.95;;
51082;SDS011;37131;42.694;23.350;2023-09-18T08:01:03;8.90;;;5.03;;
51082;SDS011;37131;42.694;23.350;2023-09-18T08:03:30;15.18;;;5.28;;
51082;SDS011;37131;42.694;23.350;2023-09-18T08:05:56;9.95;;;5.35;;
51082;SDS011;37131;42.694;23.350;2023-09-18T08:08:22;7.88;;;4.53;;
51082;SDS011;37131;42.694;23.350;2023-09-18T08:10:48;11.30;;;4.93;;
51082;SDS011;37131;42.694;23.350;2023-09-18T08:13:14;9.73;;;4.90;;
51082;SDS011;37131;42.694;23.350;2023-09-18T08:15:40;9.60;;;4.70;;
51082;SDS011;37131;42.694;23.350;2023-09-18T08:18:06;10.13;;;4.57;;
51082;SDS011;37131;42.694;23.350;2023-09-18T08:20:31;10.73;;;4.45;;
51082;SDS011;37131;42.694;23.350;2023-09-18T08:22:58;11.50;;;4.97;;
51082;SDS011;37131;42.694;23.350;2023-09-18T08:25:28;10.80;;;4.70;;
51082;SDS011;37131;42.694;23.350;2023-09-18T08:27:53;8.23;;;4.38;;
51082;SDS011;37131;42.694;23.350;2023-09-18T08:30:19;8.02;;;4.25;;
51082;SDS011;37131;42.694;23.350;2023-09-18T08:32:46;9.35;;;4.60;;
51082;SDS011;37131;42.694;23.350;2023-09-18T08:35:12;8.45;;;3.75;;
51082;SDS011;37131;42.694;23.350;2023-09-18T08:37:38;6.97;;;4.07;;
51082;SDS011;37131;42.694;23.350;2023-09-18T08:40:04;13.38;;;4.80;;
51082;SDS011;37131;42.694;23.350;2023-09-18T08:42:34;9.52;;;4.70;;
51082;SDS011;37131;42.694;23.350;2023-09-18T08:45:04;8.65;;;4.13;;
51082;SDS011;37131;42.694;23.350;2023-09-18T08:47:34;29.30;;;14.30;;
51082;SDS011;37131;42.694;23.350;2023-09-18T08:50:01;10.07;;;4.45;;
51082;SDS011;37131;42.694;23.350;2023-09-18T08:52:27;11.52;;;5.63;;
51082;SDS011;37131;42.694;23.350;2023-09-18T08:54:53;9.80;;;4.93;;
51082;SDS011;37131;42.694;23.350;2023-09-18T08:57:19;8.90;;;4.13;;
51082;SDS011;37131;42.694;23.350;2023-09-18T08:59:46;9.35;;;4.78;;
51082;SDS011;37131;42.694;23.350;2023-09-18T09:02:13;9.55;;;4.80;;
51082;SDS011;37131;42.694;23.350;2023-09-18T09:04:39;12.27;;;5.35;;
51082;SDS011;37131;42.694;23.350;2023-09-18T09:07:05;10.82;;;4.30;;
51082;SDS011;37131;42.694;23.350;2023-09-18T09:09:30;8.48;;;4.55;;
51082;SDS011;37131;42.694;23.350;2023-09-18T09:11:56;6.88;;;3.80;;
51082;SDS011;37131;42.694;23.350;2023-09-18T09:14:21;7.85;;;4.00;;
51082;SDS011;37131;42.694;23.350;2023-09-18T09:16:53;9.02;;;3.88;;
51082;SDS011;37131;42.694;23.350;2023-09-18T09:19:29;10.73;;;3.97;;
51082;SDS011;37131;42.694;23.350;2023-09-18T09:21:57;10.40;;;4.20;;
51082;SDS011;37131;42.694;23.350;2023-09-18T09:24:43;8.13;;;4.13;;
51082;SDS011;37131;42.694;23.350;2023-09-18T09:27:09;7.45;;;3.17;;
51082;SDS011;37131;42.694;23.350;2023-09-18T09:29:35;6.43;;;3.78;;
51082;SDS011;37131;42.694;23.350;2023-09-18T09:32:14;7.47;;;4.00;;
51082;SDS011;37131;42.694;23.350;2023-09-18T09:34:42;7.40;;;3.25;;
51082;SDS011;37131;42.694;23.350;2023-09-18T09:37:08;9.25;;;3.25;;
51082;SDS011;37131;42.694;23.350;2023-09-18T09:39:34;7.38;;;3.60;;
51082;SDS011;37131;42.694;23.350;2023-09-18T09:42:00;7.60;;;3.55;;
51082;SDS011;37131;42.694;23.350;2023-09-18T09:44:29;7.07;;;3.72;;
51082;SDS011;37131;42.694;23.350;2023-09-18T09:46:57;6.38;;;3.50;;
51082;SDS011;37131;42.694;23.350;2023-09-18T09:49:24;7.10;;;3.95;;
51082;SDS011;37131;42.694;23.350;2023-09-18T09:51:52;7.57;;;3.58;;
51082;SDS011;37131;42.694;23.350;2023-09-18T09:54:31;5.43;;;3.33;;
51082;SDS011;37131;42.694;23.350;2023-09-18T09:57:02;5.25;;;3.15;;
51082;SDS011;37131;42.694;23.350;2023-09-18T09:59:28;6.25;;;3.13;;
51082;SDS011;37131;42.694;23.350;2023-09-18T10:01:55;5.88;;;3.20;;
51082;SDS011;37131;42.694;23.350;2023-09-18T10:04:23;4.95;;;2.83;;
51082;SDS011;37131;42.694;23.350;2023-09-18T10:06:54;9.90;;;3.95;;
51082;SDS011;37131;42.694;23.350;2023-09-18T10:09:30;4.45;;;2.70;;
51082;SDS011;37131;42.694;23.350;2023-09-18T10:12:00;6.30;;;3.00;;
51082;SDS011;37131;42.694;23.350;2023-09-18T10:14:30;3.90;;;2.40;;
51082;SDS011;37131;42.694;23.350;2023-09-18T10:16:59;7.97;;;3.28;;
51082;SDS011;37131;42.694;23.350;2023-09-18T10:19:36;7.00;;;2.60;;
51082;SDS011;37131;42.694;23.350;2023-09-18T10:22:24;4.72;;;2.33;;
51082;SDS011;37131;42.694;23.350;2023-09-18T10:25:13;3.90;;;2.15;;
51082;SDS011;37131;42.694;23.350;2023-09-18T10:27:43;3.67;;;2.00;;
51082;SDS011;37131;42.694;23.350;2023-09-18T10:30:11;4.07;;;2.20;;
51082;SDS011;37131;42.694;23.350;2023-09-18T10:32:39;4.72;;;2.38;;
51082;SDS011;37131;42.694;23.350;2023-09-18T10:35:06;4.70;;;2.90;;
51082;SDS011;37131;42.694;23.350;2023-09-18T10:37:37;4.65;;;2.50;;
51082;SDS011;37131;42.694;23.350;2023-09-18T10:40:04;4.60;;;2.42;;
51082;SDS011;37131;42.694;23.350;2023-09-18T10:42:33;4.75;;;2.30;;
51082;SDS011;37131;42.694;23.350;2023-09-18T10:45:00;7.82;;;2.60;;
51082;SDS011;37131;42.694;23.350;2023-09-18T10:47:29;4.05;;;2.20;;
51082;SDS011;37131;42.694;23.350;2023-09-18T10:49:56;7.32;;;2.35;;
51082;SDS011;37131;42.694;23.350;2023-09-18T10:52:21;6.47;;;2.22;;
51082;SDS011;37131;42.694;23.350;2023-09-18T10:54:47;6.78;;;2.28;;
51082;SDS011;37131;42.694;23.350;2023-09-18T10:57:13;5.28;;;2.20;;
51082;SDS011;37131;42.694;23.350;2023-09-18T10:59:45;5.10;;;2.30;;
51082;SDS011;37131;42.694;23.350;2023-09-18T11:02:14;5.32;;;2.30;;
51082;SDS011;37131;42.694;23.350;2023-09-18T11:04:44;2.83;;;1.87;;
51082;SDS011;37131;42.694;23.350;2023-09-18T11:07:28;4.03;;;2.17;;
51082;SDS011;37131;42.694;23.350;2023-09-18T11:09:54;5.82;;;2.22;;
51082;SDS011;37131;42.694;23.350;2023-09-18T11:12:19;5.40;;;2.10;;
51082;SDS011;37131;42.694;23.350;2023-09-18T11:15:09;3.33;;;1.83;;
51082;SDS011;37131;42.694;23.350;2023-09-18T11:18:01;5.78;;;2.80;;
51082;SDS011;37131;42.694;23.350;2023-09-18T11:20:28;3.42;;;1.80;;
51082;SDS011;37131;42.694;23.350;2023-09-18T11:22:58;4.93;;;2.10;;
51082;SDS011;37131;42.694;23.350;2023-09-18T11:28:14;4.88;;;2.50;;
51082;SDS011;37131;42.694;23.350;2023-09-18T11:30:50;6.93;;;2.15;;
51082;SDS011;37131;42.694;23.350;2023-09-18T11:33:37;3.97;;;1.77;;
51082;SDS011;37131;42.694;23.350;2023-09-18T11:39:05;4.25;;;2.05;;
51082;SDS011;37131;42.694;23.350;2023-09-18T11:41:34;5.75;;;1.90;;
51082;SDS011;37131;42.694;23.350;2023-09-18T11:46:48;9.90;;;2.50;;
51082;SDS011;37131;42.694;23.350;2023-09-18T11:49:21;4.00;;;2.13;;
51082;SDS011;37131;42.694;23.350;2023-09-18T11:51:48;3.45;;;1.55;;
51082;SDS011;37131;42.694;23.350;2023-09-18T11:54:15;2.58;;;1.60;;
51082;SDS011;37131;42.694;23.350;2023-09-18T11:56:41;3.95;;;2.13;;
51082;SDS011;37131;42.694;23.350;2023-09-18T11:59:07;3.67;;;1.70;;
51082;SDS011;37131;42.694;23.350;2023-09-18T12:01:34;3.58;;;1.55;;
51082;SDS011;37131;42.694;23.350;2023-09-18T12:04:04;4.28;;;1.80;;
51082;SDS011;37131;42.694;23.350;2023-09-18T12:06:43;2.75;;;1.67;;
51082;SDS011;37131;42.694;23.350;2023-09-18T12:11:58;4.15;;;2.25;;
51082;SDS011;37131;42.694;23.350;2023-09-18T12:14:29;6.70;;;1.92;;
51082;SDS011;37131;42.694;23.350;2023-09-18T12:16:56;4.60;;;1.83;;
51082;SDS011;37131;42.694;23.350;2023-09-18T12:19:22;4.15;;;1.80;;
51082;SDS011;37131;42.694;23.350;2023-09-18T12:21:48;4.10;;;2.40;;
51082;SDS011;37131;42.694;23.350;2023-09-18T12:24:23;3.72;;;1.90;;
51082;SDS011;37131;42.694;23.350;2023-09-18T12:26:53;4.63;;;1.85;;
51082;SDS011;37131;42.694;23.350;2023-09-18T12:29:20;3.20;;;1.92;;
51082;SDS011;37131;42.694;23.350;2023-09-18T12:31:46;6.05;;;1.83;;
51082;SDS011;37131;42.694;23.350;2023-09-18T12:34:16;4.95;;;1.90;;
51082;SDS011;37131;42.694;23.350;2023-09-18T12:36:43;3.28;;;1.70;;
51082;SDS011;37131;42.694;23.350;2023-09-18T12:39:09;3.10;;;1.67;;
51082;SDS011;37131;42.694;23.350;2023-09-18T12:41:35;3.15;;;1.70;;
51082;SDS011;37131;42.694;23.350;2023-09-18T12:44:02;2.20;;;1.60;;
51082;SDS011;37131;42.694;23.350;2023-09-18T12:46:30;2.15;;;1.45;;
51082;SDS011;37131;42.694;23.350;2023-09-18T12:48:56;2.67;;;1.52;;
51082;SDS011;37131;42.694;23.350;2023-09-18T12:51:30;4.45;;;1.83;;
51082;SDS011;37131;42.694;23.350;2023-09-18T12:53:59;5.57;;;1.98;;
51082;SDS011;37131;42.694;23.350;2023-09-18T12:56:26;3.42;;;1.75;;
51082;SDS011;37131;42.694;23.350;2023-09-18T12:58:51;3.67;;;1.90;;
51082;SDS011;37131;42.694;23.350;2023-09-18T13:01:17;6.05;;;2.17;;
51082;SDS011;37131;42.694;23.350;2023-09-18T13:03:43;2.78;;;1.85;;
51082;SDS011;37131;42.694;23.350;2023-09-18T13:06:15;4.47;;;1.80;;
51082;SDS011;37131;42.694;23.350;2023-09-18T13:11:08;2.80;;;1.70;;
51082;SDS011;37131;42.694;23.350;2023-09-18T13:13:36;3.67;;;1.85;;
51082;SDS011;37131;42.694;23.350;2023-09-18T13:16:04;4.15;;;1.77;;
51082;SDS011;37131;42.694;23.350;2023-09-18T13:18:31;3.85;;;1.63;;
51082;SDS011;37131;42.694;23.350;2023-09-18T13:20:56;4.78;;;1.90;;
51082;SDS011;37131;42.694;23.350;2023-09-18T13:23:31;3.38;;;1.73;;
51082;SDS011;37131;42.694;23.350;2023-09-18T13:26:04;3.72;;;2.20;;
51082;SDS011;37131;42.694;23.350;2023-09-18T13:28:30;4.03;;;2.00;;
51082;SDS011;37131;42.694;23.350;2023-09-18T13:30:58;3.20;;;1.60;;
51082;SDS011;37131;42.694;23.350;2023-09-18T13:33:24;3.80;;;1.90;;
51082;SDS011;37131;42.694;23.350;2023-09-18T13:35:51;2.80;;;1.80;;
51082;SDS011;37131;42.694;23.350;2023-09-18T13:38:18;3.03;;;1.73;;
51082;SDS011;37131;42.694;23.350;2023-09-18T13:40:45;3.55;;;1.50;;
51082;SDS011;37131;42.694;23.350;2023-09-18T13:43:12;5.00;;;2.10;;
51082;SDS011;37131;42.694;23.350;2023-09-18T13:45:43;3.25;;;1.67;;
51082;SDS011;37131;42.694;23.350;2023-09-18T13:48:09;3.75;;;1.60;;
51082;SDS011;37131;42.694;23.350;2023-09-18T13:50:35;3.15;;;1.67;;
51082;SDS011;37131;42.694;23.350;2023-09-18T13:53:02;6.15;;;2.00;;
51082;SDS011;37131;42.694;23.350;2023-09-18T13:55:31;4.13;;;1.90;;
51082;SDS011;37131;42.694;23.350;2023-09-18T13:57:57;6.72;;;1.70;;
51082;SDS011;37131;42.694;23.350;2023-09-18T14:00:23;4.88;;;1.80;;
51082;SDS011;37131;42.694;23.350;2023-09-18T14:02:50;5.13;;;1.65;;
51082;SDS011;37131;42.694;23.350;2023-09-18T14:05:16;5.65;;;2.08;;
51082;SDS011;37131;42.694;23.350;2023-09-18T14:07:41;2.90;;;1.70;;
51082;SDS011;37131;42.694;23.350;2023-09-18T14:10:07;4.55;;;2.03;;
51082;SDS011;37131;42.694;23.350;2023-09-18T14:12:35;5.80;;;1.90;;
51082;SDS011;37131;42.694;23.350;2023-09-18T14:15:06;4.30;;;1.70;;
51082;SDS011;37131;42.694;23.350;2023-09-18T14:17:33;3.88;;;1.98;;
51082;SDS011;37131;42.694;23.350;2023-09-18T14:19:59;6.40;;;1.67;;
51082;SDS011;37131;42.694;23.350;2023-09-18T14:22:25;3.97;;;1.88;;
51082;SDS011;37131;42.694;23.350;2023-09-18T14:24:51;3.50;;;1.73;;
51082;SDS011;37131;42.694;23.350;2023-09-18T14:27:16;5.10;;;2.10;;
51082;SDS011;37131;42.694;23.350;2023-09-18T14:29:42;3.28;;;1.58;;
51082;SDS011;37131;42.694;23.350;2023-09-18T14:32:07;3.10;;;1.52;;
51082;SDS011;37131;42.694;23.350;2023-09-18T14:34:33;3.53;;;1.67;;
51082;SDS011;37131;42.694;23.350;2023-09-18T14:37:01;2.50;;;1.83;;
51082;SDS011;37131;42.694;23.350;2023-09-18T14:39:29;3.83;;;1.80;;
51082;SDS011;37131;42.694;23.350;2023-09-18T14:41:55;5.88;;;2.03;;